Time;durP1;ratioP1;P1;durP2;ratioP2;P2;SDS_P1;SDS_P2;PMS_P1;PMS_P2;Temp;Humidity;BMP_temperature;BMP_pressure;BME280_temperature;BME280_humidity;BME280_pressure;Samples;Min_cycle;Max_cycle;Signal;HPM_P1;HPM_P2
2023/12/07 00:01:17;;;;;;;21.50;11.40;;;;;;;;;;5116662;27;20135;-71
2023/12/07 00:03:44;;;;;;;19.15;11.05;;;;;;;;;;5112412;28;20481;-71
2023/12/07 00:06:11;;;;;;;19.48;10.32;;;;;;;;;;5111917;28;20485;-71
2023/12/07 00:08:38;;;;;;;19.80;10.65;;;;;;;;;;5112649;27;20411;-71
2023/12/07 00:11:05;;;;;;;18.92;9.77;;;;;;;;;;5111359;28;20048;-71
2023/12/07 00:13:32;;;;;;;18.60;10.07;;;;;;;;;;5116603;27;20130;-71
2023/12/07 00:15:59;;;;;;;19.52;10.13;;;;;;;;;;5111960;27;20503;-71
2023/12/07 00:18:24;;;;;;;16.58;9.35;;;;;;;;;;5111922;28;20131;-71
2023/12/07 00:20:51;;;;;;;15.57;9.70;;;;;;;;;;5115914;27;20482;-71
2023/12/07 00:23:17;;;;;;;15.38;9.07;;;;;;;;;;5116073;27;20130;-71
2023/12/07 00:25:46;;;;;;;15.38;9.52;;;;;;;;;;5116499;27;20568;-71
2023/12/07 00:28:12;;;;;;;16.88;9.00;;;;;;;;;;5111738;28;20047;-71
2023/12/07 00:30:39;;;;;;;16.60;9.60;;;;;;;;;;5111608;28;20044;-71
2023/12/07 00:33:05;;;;;;;15.80;9.43;;;;;;;;;;5111564;28;20559;-71
2023/12/07 00:35:32;;;;;;;18.98;9.80;;;;;;;;;;5112166;28;20050;-72
2023/12/07 00:37:59;;;;;;;16.77;9.50;;;;;;;;;;5116318;27;20040;-71
2023/12/07 00:40:25;;;;;;;17.08;9.32;;;;;;;;;;5111338;28;20047;-71
2023/12/07 00:42:53;;;;;;;15.23;9.30;;;;;;;;;;5111517;28;20083;-72
2023/12/07 00:45:19;;;;;;;16.33;9.95;;;;;;;;;;5115316;27;20043;-72
2023/12/07 00:47:46;;;;;;;14.38;8.82;;;;;;;;;;5111131;28;20050;-71
2023/12/07 00:50:15;;;;;;;18.33;9.18;;;;;;;;;;5111447;28;20046;-71
2023/12/07 00:52:41;;;;;;;15.60;9.68;;;;;;;;;;5119832;27;20062;-72
2023/12/07 00:55:08;;;;;;;15.88;8.40;;;;;;;;;;5111683;28;20495;-71
2023/12/07 00:57:35;;;;;;;16.90;9.55;;;;;;;;;;5111536;27;20492;-72
2023/12/07 01:00:04;;;;;;;15.88;9.55;;;;;;;;;;5114992;28;20525;-72
2023/12/07 01:02:30;;;;;;;15.10;8.85;;;;;;;;;;5119737;28;20050;-71
2023/12/07 01:04:57;;;;;;;18.50;8.90;;;;;;;;;;5115497;28;20046;-72
2023/12/07 01:07:23;;;;;;;17.50;10.00;;;;;;;;;;5111401;28;20044;-72
2023/12/07 01:09:50;;;;;;;17.50;9.20;;;;;;;;;;5119415;28;20414;-73
2023/12/07 01:12:16;;;;;;;15.23;9.00;;;;;;;;;;5114752;28;20039;-72
2023/12/07 01:14:43;;;;;;;13.73;8.55;;;;;;;;;;5111615;28;20044;-72
2023/12/07 01:17:11;;;;;;;14.98;8.80;;;;;;;;;;5115213;28;20048;-71
2023/12/07 01:19:37;;;;;;;14.70;9.38;;;;;;;;;;5111083;28;20043;-72
2023/12/07 01:22:04;;;;;;;16.88;9.40;;;;;;;;;;5112207;28;20059;-71
2023/12/07 01:24:31;;;;;;;18.33;9.43;;;;;;;;;;5115318;28;20050;-71
2023/12/07 01:26:58;;;;;;;17.15;9.95;;;;;;;;;;5119620;27;20396;-71
2023/12/07 01:29:24;;;;;;;17.00;9.88;;;;;;;;;;5119924;27;20079;-71
2023/12/07 01:31:51;;;;;;;16.75;9.13;;;;;;;;;;5122993;27;20055;-71
2023/12/07 01:34:19;;;;;;;16.23;8.73;;;;;;;;;;5124758;27;20054;-71
2023/12/07 01:36:46;;;;;;;13.23;8.27;;;;;;;;;;5115222;28;20048;-71
2023/12/07 01:39:13;;;;;;;13.65;8.48;;;;;;;;;;5115477;28;20051;-71
2023/12/07 01:41:40;;;;;;;15.48;8.63;;;;;;;;;;5115113;27;20043;-71
2023/12/07 01:44:06;;;;;;;14.82;8.18;;;;;;;;;;5119171;27;20308;-71
2023/12/07 01:46:33;;;;;;;12.90;8.07;;;;;;;;;;5114666;28;20043;-71
2023/12/07 01:49:00;;;;;;;16.33;8.52;;;;;;;;;;5119177;27;20049;-71
2023/12/07 01:51:29;;;;;;;16.48;9.02;;;;;;;;;;5115005;28;20473;-71
2023/12/07 01:53:55;;;;;;;12.05;7.53;;;;;;;;;;5114584;28;20414;-72
2023/12/07 01:56:25;;;;;;;14.27;7.53;;;;;;;;;;5115203;27;20047;-71
2023/12/07 01:58:52;;;;;;;12.95;7.13;;;;;;;;;;5114449;28;20044;-71
2023/12/07 02:01:18;;;;;;;12.38;7.15;;;;;;;;;;5114497;28;20054;-71
2023/12/07 02:03:45;;;;;;;13.60;7.30;;;;;;;;;;5114691;28;20047;-72
2023/12/07 02:06:13;;;;;;;11.48;6.88;;;;;;;;;;5114462;28;21167;-72
2023/12/07 02:08:42;;;;;;;12.77;7.00;;;;;;;;;;5118497;27;20126;-71
2023/12/07 02:11:09;;;;;;;10.10;6.47;;;;;;;;;;5113975;27;20044;-71
2023/12/07 02:13:36;;;;;;;11.23;6.47;;;;;;;;;;5127232;27;20054;-71
2023/12/07 02:16:08;;;;;;;14.00;7.28;;;;;;;;;;5114367;28;20051;-71
2023/12/07 02:18:41;;;;;;;12.57;7.00;;;;;;;;;;5119277;27;20047;-71
2023/12/07 02:21:12;;;;;;;;;;;;;;;;;;5114962;27;20498;-71
2023/12/07 02:23:42;;;;;;;12.55;6.00;;;;;;;;;;5114105;28;19926;-71
2023/12/07 02:26:12;;;;;;;11.20;6.03;;;;;;;;;;5122396;27;20044;-72
2023/12/07 02:28:40;;;;;;;14.23;6.93;;;;;;;;;;5114398;27;20046;-71
2023/12/07 02:31:06;;;;;;;11.45;6.88;;;;;;;;;;5113718;28;20052;-71
2023/12/07 02:33:33;;;;;;;12.90;6.68;;;;;;;;;;5113428;28;20047;-71
2023/12/07 02:36:00;;;;;;;10.73;6.72;;;;;;;;;;5122346;27;20052;-71
2023/12/07 02:38:29;;;;;;;11.77;6.28;;;;;;;;;;5122143;27;20050;-71
2023/12/07 02:40:56;;;;;;;10.23;5.57;;;;;;;;;;5114044;27;20074;-71
2023/12/07 02:43:23;;;;;;;9.95;6.07;;;;;;;;;;5117054;27;20043;-72
2023/12/07 02:45:51;;;;;;;7.97;5.72;;;;;;;;;;5118417;27;20238;-71
2023/12/07 02:48:18;;;;;;;8.93;5.72;;;;;;;;;;5114064;27;20412;-71
2023/12/07 02:50:44;;;;;;;9.63;5.63;;;;;;;;;;5113116;28;20043;-71
2023/12/07 02:53:11;;;;;;;11.23;6.07;;;;;;;;;;5117669;27;20058;-71
2023/12/07 02:55:37;;;;;;;10.95;6.05;;;;;;;;;;5117751;27;20054;-71
2023/12/07 02:58:06;;;;;;;9.70;5.97;;;;;;;;;;5113610;28;20040;-71
2023/12/07 03:00:33;;;;;;;11.55;6.25;;;;;;;;;;5113570;27;20146;-71
2023/12/07 03:03:00;;;;;;;11.95;6.57;;;;;;;;;;5117323;27;20522;-71
2023/12/07 03:05:27;;;;;;;11.98;6.05;;;;;;;;;;5113361;28;20519;-71
2023/12/07 03:07:54;;;;;;;12.32;6.35;;;;;;;;;;5113316;27;20046;-72
2023/12/07 03:10:20;;;;;;;11.15;6.00;;;;;;;;;;5129513;27;20052;-71
2023/12/07 03:12:47;;;;;;;9.05;6.32;;;;;;;;;;5109264;28;20048;-71
2023/12/07 03:15:13;;;;;;;10.32;5.95;;;;;;;;;;5113365;28;20420;-71
2023/12/07 03:17:40;;;;;;;10.52;6.15;;;;;;;;;;5115751;27;20040;-72
2023/12/07 03:20:10;;;;;;;10.85;5.90;;;;;;;;;;5117972;27;20047;-71
2023/12/07 03:22:36;;;;;;;11.20;6.22;;;;;;;;;;5113349;28;20407;-72
2023/12/07 03:25:03;;;;;;;10.23;6.65;;;;;;;;;;5113004;28;20518;-71
2023/12/07 03:27:28;;;;;;;12.02;6.82;;;;;;;;;;5112787;28;20043;-71
2023/12/07 03:29:55;;;;;;;11.05;6.82;;;;;;;;;;5120890;27;20127;-71
2023/12/07 03:32:22;;;;;;;12.73;6.65;;;;;;;;;;5120716;27;20048;-71
2023/12/07 03:34:48;;;;;;;11.90;7.50;;;;;;;;;;5113109;28;20405;-71
2023/12/07 03:37:16;;;;;;;11.38;6.72;;;;;;;;;;5116952;27;20043;-71
2023/12/07 03:39:43;;;;;;;9.98;6.32;;;;;;;;;;5112631;28;20057;-71
2023/12/07 03:42:09;;;;;;;10.55;7.03;;;;;;;;;;5112579;28;20492;-72
2023/12/07 03:44:36;;;;;;;12.57;7.40;;;;;;;;;;5116918;27;20438;-72
2023/12/07 03:47:02;;;;;;;12.15;7.15;;;;;;;;;;5111249;28;20487;-71
2023/12/07 03:49:29;;;;;;;12.30;7.10;;;;;;;;;;5112287;27;20043;-71
2023/12/07 03:51:55;;;;;;;12.70;7.25;;;;;;;;;;5112478;28;20039;-71
2023/12/07 03:54:23;;;;;;;12.40;6.78;;;;;;;;;;5116467;27;20143;-71
2023/12/07 03:56:50;;;;;;;11.35;7.05;;;;;;;;;;5112452;28;20480;-71
2023/12/07 03:59:16;;;;;;;13.70;7.70;;;;;;;;;;5116521;27;20483;-72
2023/12/07 04:01:43;;;;;;;11.75;6.68;;;;;;;;;;5112168;28;20426;-71
2023/12/07 04:04:09;;;;;;;13.25;7.68;;;;;;;;;;5112381;28;20560;-71
2023/12/07 04:06:36;;;;;;;15.20;8.35;;;;;;;;;;5112376;28;20044;-71
2023/12/07 04:09:04;;;;;;;11.50;7.18;;;;;;;;;;5111989;28;20422;-71
2023/12/07 04:11:32;;;;;;;10.93;6.63;;;;;;;;;;5111795;27;20101;-71
2023/12/07 04:13:58;;;;;;;12.57;7.68;;;;;;;;;;5111837;28;20083;-71
2023/12/07 04:16:25;;;;;;;12.18;7.50;;;;;;;;;;5112347;28;20065;-71
2023/12/07 04:18:52;;;;;;;11.48;7.07;;;;;;;;;;5116361;27;20072;-71
2023/12/07 04:21:19;;;;;;;11.63;7.20;;;;;;;;;;5112188;28;20048;-71
2023/12/07 04:23:45;;;;;;;12.25;6.63;;;;;;;;;;5111895;28;20423;-71
2023/12/07 04:26:12;;;;;;;10.60;6.55;;;;;;;;;;5111463;28;20062;-71
2023/12/07 04:28:39;;;;;;;9.40;6.38;;;;;;;;;;5111599;28;20499;-71
2023/12/07 04:31:06;;;;;;;8.35;5.43;;;;;;;;;;5111392;28;20133;-71
2023/12/07 04:33:33;;;;;;;9.43;5.53;;;;;;;;;;5113810;27;20492;-71
2023/12/07 04:35:59;;;;;;;10.18;6.30;;;;;;;;;;5114016;27;20047;-71
2023/12/07 04:38:26;;;;;;;9.50;6.22;;;;;;;;;;5116681;27;20059;-71
2023/12/07 04:40:53;;;;;;;11.98;7.45;;;;;;;;;;5119075;27;20133;-71
2023/12/07 04:43:19;;;;;;;12.02;7.00;;;;;;;;;;5111445;28;20089;-71
2023/12/07 04:45:47;;;;;;;13.65;6.60;;;;;;;;;;5115958;27;20043;-71
2023/12/07 04:48:14;;;;;;;10.63;7.00;;;;;;;;;;5111414;28;20049;-71
2023/12/07 04:50:40;;;;;;;14.57;7.22;;;;;;;;;;5111167;28;20050;-71
2023/12/07 04:53:07;;;;;;;10.65;6.03;;;;;;;;;;5111233;28;20522;-71
2023/12/07 04:55:33;;;;;;;12.75;6.63;;;;;;;;;;5111348;28;20051;-71
2023/12/07 04:58:00;;;;;;;11.32;5.47;;;;;;;;;;5110743;28;20044;-72
2023/12/07 05:00:27;;;;;;;8.30;6.00;;;;;;;;;;5111328;28;20422;-71
2023/12/07 05:02:55;;;;;;;8.77;5.55;;;;;;;;;;5111601;28;20044;-71
2023/12/07 05:05:21;;;;;;;9.30;5.50;;;;;;;;;;5111276;28;20130;-71
2023/12/07 05:07:48;;;;;;;9.80;5.63;;;;;;;;;;5115702;28;20062;-71
2023/12/07 05:10:14;;;;;;;9.88;5.38;;;;;;;;;;5115456;28;20498;-71
2023/12/07 05:12:41;;;;;;;9.85;5.95;;;;;;;;;;5111087;28;21298;-71
2023/12/07 05:15:09;;;;;;;10.63;6.18;;;;;;;;;;5117920;28;20043;-72
2023/12/07 05:17:35;;;;;;;10.88;5.85;;;;;;;;;;5114476;27;20102;-71
2023/12/07 05:20:05;;;;;;;10.80;5.68;;;;;;;;;;5117313;28;20044;-71
2023/12/07 05:22:32;;;;;;;9.55;6.35;;;;;;;;;;5111176;28;20491;-71
2023/12/07 05:24:59;;;;;;;7.85;5.45;;;;;;;;;;5114634;28;20127;-71
2023/12/07 05:27:25;;;;;;;10.23;5.63;;;;;;;;;;5111110;28;20084;-71
2023/12/07 05:29:51;;;;;;;9.73;6.00;;;;;;;;;;5110976;28;20119;-71
2023/12/07 05:32:18;;;;;;;11.98;6.90;;;;;;;;;;5110938;28;20517;-71
2023/12/07 05:34:45;;;;;;;9.35;5.60;;;;;;;;;;5111118;28;20496;-71
2023/12/07 05:37:13;;;;;;;12.75;6.53;;;;;;;;;;5115158;28;20074;-71
2023/12/07 05:39:39;;;;;;;8.85;5.03;;;;;;;;;;5110506;28;20467;-71
2023/12/07 05:42:07;;;;;;;10.20;6.03;;;;;;;;;;5113153;28;20075;-71
2023/12/07 05:44:33;;;;;;;9.02;5.95;;;;;;;;;;5114683;28;20059;-71
2023/12/07 05:47:00;;;;;;;9.18;5.95;;;;;;;;;;5113185;28;20505;-71
2023/12/07 05:49:26;;;;;;;13.15;6.97;;;;;;;;;;5114828;28;20418;-71
2023/12/07 05:51:53;;;;;;;10.82;5.97;;;;;;;;;;5110653;28;20044;-72
2023/12/07 05:54:22;;;;;;;11.60;6.32;;;;;;;;;;5110871;28;20465;-72
2023/12/07 05:56:48;;;;;;;11.90;6.05;;;;;;;;;;5111026;28;20044;-72
2023/12/07 05:59:15;;;;;;;10.98;6.40;;;;;;;;;;5110828;28;20043;-72
2023/12/07 06:01:42;;;;;;;12.43;6.80;;;;;;;;;;5110627;28;20051;-71
2023/12/07 06:04:10;;;;;;;10.68;6.68;;;;;;;;;;5113004;28;20048;-71
2023/12/07 06:06:36;;;;;;;12.20;6.65;;;;;;;;;;5115792;28;20070;-71
2023/12/07 06:09:05;;;;;;;12.48;7.10;;;;;;;;;;5111474;28;20040;-71
2023/12/07 06:11:33;;;;;;;11.80;6.40;;;;;;;;;;5114537;28;20055;-71
2023/12/07 06:13:59;;;;;;;12.27;6.25;;;;;;;;;;5114266;28;20050;-71
2023/12/07 06:16:26;;;;;;;11.80;7.07;;;;;;;;;;5114450;28;20044;-71
2023/12/07 06:18:52;;;;;;;13.07;6.95;;;;;;;;;;5114139;28;20405;-71
2023/12/07 06:21:20;;;;;;;14.68;7.45;;;;;;;;;;5114028;28;20406;-72
2023/12/07 06:23:47;;;;;;;9.90;5.80;;;;;;;;;;5114418;28;20499;-71
2023/12/07 06:26:13;;;;;;;12.15;6.68;;;;;;;;;;5113946;28;20063;-71
2023/12/07 06:28:42;;;;;;;13.13;6.40;;;;;;;;;;5118604;27;20050;-71
2023/12/07 06:31:09;;;;;;;12.35;6.85;;;;;;;;;;5113692;28;20074;-70
2023/12/07 06:33:36;;;;;;;11.60;6.22;;;;;;;;;;5116114;27;20043;-71
2023/12/07 06:36:04;;;;;;;12.27;6.65;;;;;;;;;;5120521;27;20055;-71
2023/12/07 06:38:30;;;;;;;18.65;6.75;;;;;;;;;;5113884;28;20469;-71
2023/12/07 06:40:57;;;;;;;11.57;6.00;;;;;;;;;;5113553;28;20055;-71
2023/12/07 06:43:23;;;;;;;15.15;7.55;;;;;;;;;;5114176;27;20400;-71
2023/12/07 06:45:52;;;;;;;14.48;7.85;;;;;;;;;;5113813;28;20044;-71
2023/12/07 06:48:18;;;;;;;12.45;7.00;;;;;;;;;;5117937;27;20579;-71
2023/12/07 06:50:45;;;;;;;15.23;8.00;;;;;;;;;;5113576;28;20492;-70
2023/12/07 06:53:11;;;;;;;11.35;6.45;;;;;;;;;;5113741;27;20475;-71
2023/12/07 06:55:38;;;;;;;11.68;5.35;;;;;;;;;;5113679;28;20478;-71
2023/12/07 06:58:05;;;;;;;12.63;7.07;;;;;;;;;;5113459;28;20044;-71
2023/12/07 07:00:32;;;;;;;12.70;6.20;;;;;;;;;;5113102;28;20397;-71
2023/12/07 07:03:00;;;;;;;11.77;6.22;;;;;;;;;;5113247;28;20051;-71
2023/12/07 07:05:27;;;;;;;11.23;6.88;;;;;;;;;;5117883;27;20043;-70
2023/12/07 07:07:55;;;;;;;14.63;6.72;;;;;;;;;;5113509;28;20424;-71
2023/12/07 07:10:21;;;;;;;11.85;6.97;;;;;;;;;;5113081;28;20044;-71
2023/12/07 07:12:48;;;;;;;9.77;6.53;;;;;;;;;;5109563;27;20040;-71
2023/12/07 07:15:15;;;;;;;10.93;6.07;;;;;;;;;;5116264;27;20047;-72
2023/12/07 07:17:42;;;;;;;10.80;5.72;;;;;;;;;;5113907;27;20135;-71
2023/12/07 07:20:10;;;;;;;10.98;6.38;;;;;;;;;;5113156;28;20063;-71
2023/12/07 07:22:37;;;;;;;9.90;6.03;;;;;;;;;;5121502;27;20048;-71
2023/12/07 07:25:04;;;;;;;8.55;5.53;;;;;;;;;;5112934;28;20079;-71
2023/12/07 07:27:31;;;;;;;8.45;5.22;;;;;;;;;;5112969;28;20043;-71
2023/12/07 07:29:57;;;;;;;11.57;6.32;;;;;;;;;;5116823;27;20040;-71
2023/12/07 07:32:24;;;;;;;11.45;5.90;;;;;;;;;;5113230;28;20047;-71
2023/12/07 07:34:50;;;;;;;9.32;5.95;;;;;;;;;;5117149;27;20051;-71
2023/12/07 07:37:18;;;;;;;9.82;5.50;;;;;;;;;;5113060;27;20039;-71
2023/12/07 07:39:45;;;;;;;10.27;5.22;;;;;;;;;;5112658;28;20047;-70
2023/12/07 07:42:11;;;;;;;8.88;6.07;;;;;;;;;;5112919;28;20100;-71
2023/12/07 07:44:38;;;;;;;12.45;7.47;;;;;;;;;;5116967;27;20043;-71
2023/12/07 07:47:05;;;;;;;9.02;5.45;;;;;;;;;;5117361;27;20410;-71
2023/12/07 07:49:31;;;;;;;11.55;6.10;;;;;;;;;;5112350;28;20051;-71
2023/12/07 07:51:58;;;;;;;9.27;5.50;;;;;;;;;;5112363;28;20510;-71
2023/12/07 07:54:26;;;;;;;10.52;5.95;;;;;;;;;;5112238;28;20044;-71
2023/12/07 07:56:53;;;;;;;10.60;6.47;;;;;;;;;;5112307;28;20105;-72
2023/12/07 07:59:19;;;;;;;10.75;6.53;;;;;;;;;;5113043;27;20047;-71
2023/12/07 08:01:47;;;;;;;11.25;6.70;;;;;;;;;;5116397;27;20044;-71
2023/12/07 08:04:13;;;;;;;10.73;6.25;;;;;;;;;;5116850;27;20047;-71
2023/12/07 08:06:40;;;;;;;15.55;7.60;;;;;;;;;;5112017;28;20039;-71
2023/12/07 08:09:08;;;;;;;10.35;5.85;;;;;;;;;;5116219;27;20044;-71
2023/12/07 08:11:36;;;;;;;17.15;7.10;;;;;;;;;;5111847;28;20044;-71
2023/12/07 08:14:03;;;;;;;11.32;7.75;;;;;;;;;;5117580;27;20086;-71
2023/12/07 08:16:29;;;;;;;9.98;6.45;;;;;;;;;;5119844;27;20406;-69
2023/12/07 08:18:56;;;;;;;9.27;5.78;;;;;;;;;;5111649;27;20054;-71
2023/12/07 08:21:23;;;;;;;10.05;6.35;;;;;;;;;;5111484;27;20039;-70
2023/12/07 08:23:49;;;;;;;9.63;6.03;;;;;;;;;;5119422;27;20130;-71
2023/12/07 08:26:16;;;;;;;9.07;5.55;;;;;;;;;;5126572;27;20130;-71
2023/12/07 08:28:44;;;;;;;9.90;5.40;;;;;;;;;;5111633;27;20054;-71
2023/12/07 08:31:11;;;;;;;13.07;7.57;;;;;;;;;;5109509;28;20039;-71
2023/12/07 08:33:39;;;;;;;7.95;5.30;;;;;;;;;;5117342;27;20054;-72
2023/12/07 08:36:06;;;;;;;13.82;6.15;;;;;;;;;;5108219;28;20465;-71
2023/12/07 08:38:33;;;;;;;7.15;4.95;;;;;;;;;;5110065;28;20131;-71
2023/12/07 08:40:59;;;;;;;7.20;5.03;;;;;;;;;;5110183;27;20653;-71
2023/12/07 08:43:28;;;;;;;7.72;5.10;;;;;;;;;;5111664;27;20049;-71
2023/12/07 08:45:56;;;;;;;9.60;4.93;;;;;;;;;;5110981;28;20048;-72
2023/12/07 08:48:22;;;;;;;7.63;5.10;;;;;;;;;;5119181;27;20121;-72
2023/12/07 08:50:49;;;;;;;8.80;5.68;;;;;;;;;;5112624;27;20046;-71
2023/12/07 08:53:15;;;;;;;8.07;5.18;;;;;;;;;;5114745;27;20051;-71
2023/12/07 08:55:42;;;;;;;7.20;4.80;;;;;;;;;;5111352;28;20047;-71
2023/12/07 08:58:10;;;;;;;7.18;5.00;;;;;;;;;;5111281;28;20047;-71
2023/12/07 09:00:38;;;;;;;7.18;5.03;;;;;;;;;;5114680;28;20040;-71
2023/12/07 09:03:06;;;;;;;7.68;4.40;;;;;;;;;;5110881;28;20449;-71
2023/12/07 09:05:32;;;;;;;8.48;5.07;;;;;;;;;;5111250;28;20443;-71
2023/12/07 09:07:59;;;;;;;8.23;5.10;;;;;;;;;;5110574;28;20054;-71
2023/12/07 09:10:25;;;;;;;7.68;5.25;;;;;;;;;;5110771;28;20040;-71
2023/12/07 09:12:52;;;;;;;8.60;4.95;;;;;;;;;;5115182;28;20241;-71
2023/12/07 09:15:18;;;;;;;8.25;5.35;;;;;;;;;;5107583;28;20055;-71
2023/12/07 09:17:45;;;;;;;7.93;4.35;;;;;;;;;;5110446;28;20051;-71
2023/12/07 09:20:14;;;;;;;9.18;5.30;;;;;;;;;;5110039;28;20047;-71
2023/12/07 09:22:41;;;;;;;9.30;4.97;;;;;;;;;;5110539;28;20054;-71
2023/12/07 09:25:09;;;;;;;7.63;4.97;;;;;;;;;;5110726;28;20048;-71
2023/12/07 09:27:37;;;;;;;11.90;5.05;;;;;;;;;;5115230;28;20051;-71
2023/12/07 09:30:05;;;;;;;9.65;5.78;;;;;;;;;;5106796;28;20075;-71
2023/12/07 09:32:31;;;;;;;7.60;4.85;;;;;;;;;;5114562;28;20048;-71
2023/12/07 09:34:58;;;;;;;8.50;4.53;;;;;;;;;;5114976;28;20050;-71
2023/12/07 09:37:26;;;;;;;9.18;5.38;;;;;;;;;;5115258;28;20050;-71
2023/12/07 09:39:52;;;;;;;7.38;5.53;;;;;;;;;;5110699;28;20039;-71
2023/12/07 09:42:19;;;;;;;10.82;5.95;;;;;;;;;;5110768;28;20039;-71
2023/12/07 09:44:45;;;;;;;10.10;6.05;;;;;;;;;;5112944;28;20457;-71
2023/12/07 09:47:13;;;;;;;10.23;6.28;;;;;;;;;;5114011;27;20503;-71
2023/12/07 09:49:40;;;;;;;9.82;6.22;;;;;;;;;;5114202;28;20051;-71
2023/12/07 09:52:08;;;;;;;9.05;5.35;;;;;;;;;;5122983;27;20414;-71
2023/12/07 09:54:40;;;;;;;9.48;5.25;;;;;;;;;;5114299;28;20496;-71
2023/12/07 09:57:09;;;;;;;8.38;5.03;;;;;;;;;;5114402;28;20047;-72
2023/12/07 09:59:36;;;;;;;8.38;5.13;;;;;;;;;;5113935;28;20526;-71
2023/12/07 10:02:02;;;;;;;11.63;5.53;;;;;;;;;;5117971;27;20053;-71
2023/12/07 10:04:29;;;;;;;9.13;5.40;;;;;;;;;;5118995;27;20048;-71
2023/12/07 10:06:57;;;;;;;8.85;5.70;;;;;;;;;;5116838;27;20052;-71
2023/12/07 10:09:24;;;;;;;9.00;5.38;;;;;;;;;;5118141;27;20047;-71
2023/12/07 10:12:03;;;;;;;9.27;5.45;;;;;;;;;;5118449;27;20047;-71
2023/12/07 10:14:30;;;;;;;6.85;4.65;;;;;;;;;;5118192;27;20043;-71
2023/12/07 10:16:57;;;;;;;7.60;5.07;;;;;;;;;;5114060;28;20543;-71
2023/12/07 10:19:24;;;;;;;6.80;4.85;;;;;;;;;;5114150;28;20075;-71
2023/12/07 10:21:52;;;;;;;8.00;4.82;;;;;;;;;;5114443;28;20510;-71
2023/12/07 10:24:19;;;;;;;8.50;5.30;;;;;;;;;;5110241;28;20050;-71
2023/12/07 10:26:46;;;;;;;7.60;4.90;;;;;;;;;;5114319;28;20048;-72
2023/12/07 10:29:14;;;;;;;6.00;4.47;;;;;;;;;;5118186;27;20050;-71
2023/12/07 10:31:41;;;;;;;8.98;5.00;;;;;;;;;;5116246;27;20051;-71
2023/12/07 10:34:08;;;;;;;6.75;4.57;;;;;;;;;;5115104;27;20491;-73
2023/12/07 10:36:35;;;;;;;10.02;4.68;;;;;;;;;;5113909;28;20054;-72
2023/12/07 10:39:06;;;;;;;8.30;5.03;;;;;;;;;;5113597;28;20048;-72
2023/12/07 10:41:34;;;;;;;8.30;5.20;;;;;;;;;;5108786;27;20050;-73
2023/12/07 10:44:02;;;;;;;7.85;4.65;;;;;;;;;;5110025;28;20044;-72
2023/12/07 10:46:31;;;;;;;8.70;5.35;;;;;;;;;;5117303;27;20118;-73
2023/12/07 10:49:02;;;;;;;8.25;4.75;;;;;;;;;;5113214;28;20054;-72
2023/12/07 10:51:32;;;;;;;7.05;4.45;;;;;;;;;;5113714;28;20040;-72
2023/12/07 10:54:03;;;;;;;6.97;4.68;;;;;;;;;;5113775;27;20044;-72
2023/12/07 10:56:36;;;;;;;7.97;4.50;;;;;;;;;;5119752;27;20303;-72
2023/12/07 10:59:02;;;;;;;7.33;4.93;;;;;;;;;;5114692;27;20054;-71
2023/12/07 11:01:32;;;;;;;7.93;4.63;;;;;;;;;;5116018;27;20272;-72
2023/12/07 11:03:59;;;;;;;9.43;4.80;;;;;;;;;;5113450;28;20040;-72
2023/12/07 11:06:26;;;;;;;8.27;5.43;;;;;;;;;;5116844;27;20045;-72
2023/12/07 11:08:56;;;;;;;9.38;6.28;;;;;;;;;;5112205;28;20075;-73
2023/12/07 11:11:28;;;;;;;7.32;4.93;;;;;;;;;;5113043;27;20046;-72
2023/12/07 11:13:59;;;;;;;9.55;5.30;;;;;;;;;;5113626;27;20484;-72
2023/12/07 11:16:35;;;;;;;8.35;5.53;;;;;;;;;;5113345;27;20055;-72
2023/12/07 11:19:02;;;;;;;7.47;5.15;;;;;;;;;;5117148;27;20039;-73
2023/12/07 11:21:29;;;;;;;8.48;5.13;;;;;;;;;;5117256;27;20049;-72
2023/12/07 11:23:55;;;;;;;8.70;4.90;;;;;;;;;;5125896;27;20066;-73
2023/12/07 11:26:24;;;;;;;8.85;5.07;;;;;;;;;;5113180;28;20050;-73
2023/12/07 11:28:51;;;;;;;7.68;5.03;;;;;;;;;;5113292;28;20122;-72
2023/12/07 11:31:18;;;;;;;9.52;5.78;;;;;;;;;;5116237;27;20070;-73
2023/12/07 11:33:47;;;;;;;8.93;5.25;;;;;;;;;;5117346;27;20056;-72
2023/12/07 11:36:14;;;;;;;7.68;5.18;;;;;;;;;;5113186;28;20568;-72
2023/12/07 11:39:14;;;;;;;7.55;4.78;;;;;;;;;;5113049;28;20044;-73
2023/12/07 11:41:44;;;;;;;8.63;4.82;;;;;;;;;;5112589;28;20058;-72
2023/12/07 11:44:11;;;;;;;11.43;5.13;;;;;;;;;;5112729;28;20048;-72
2023/12/07 11:46:38;;;;;;;6.60;4.68;;;;;;;;;;5116723;27;20051;-72
2023/12/07 11:49:10;;;;;;;9.48;4.88;;;;;;;;;;5112427;28;20050;-72
2023/12/07 11:51:37;;;;;;;8.95;5.07;;;;;;;;;;5116694;27;20046;-72
2023/12/07 11:54:04;;;;;;;8.52;5.05;;;;;;;;;;5112392;28;20044;-72
2023/12/07 11:56:31;;;;;;;7.45;4.65;;;;;;;;;;5116363;27;20462;-72
2023/12/07 11:58:59;;;;;;;8.10;4.97;;;;;;;;;;5112207;28;20071;-72
2023/12/07 12:01:27;;;;;;;7.15;4.50;;;;;;;;;;5112268;28;20563;-73
2023/12/07 12:03:55;;;;;;;8.82;5.13;;;;;;;;;;5112542;28;20069;-72
2023/12/07 12:06:26;;;;;;;7.82;4.65;;;;;;;;;;5115690;27;20488;-73
2023/12/07 12:08:53;;;;;;;8.35;4.88;;;;;;;;;;5112208;28;20062;-74
2023/12/07 12:11:19;;;;;;;10.60;4.68;;;;;;;;;;5111310;27;20043;-73
2023/12/07 12:13:47;;;;;;;7.00;4.28;;;;;;;;;;5116824;27;20047;-73
2023/12/07 12:16:13;;;;;;;6.53;4.60;;;;;;;;;;5115000;27;20138;-72
2023/12/07 12:18:40;;;;;;;6.10;4.72;;;;;;;;;;5113381;27;20054;-73
2023/12/07 12:21:08;;;;;;;6.90;4.78;;;;;;;;;;5115618;27;20043;-73
2023/12/07 12:23:37;;;;;;;11.60;4.88;;;;;;;;;;5116004;27;20043;-73
2023/12/07 12:26:04;;;;;;;6.93;4.80;;;;;;;;;;5115756;27;20500;-72
2023/12/07 12:28:32;;;;;;;8.95;4.78;;;;;;;;;;5115908;27;20047;-73
2023/12/07 12:30:59;;;;;;;7.50;4.68;;;;;;;;;;5111864;27;20490;-72
2023/12/07 12:33:25;;;;;;;7.47;4.28;;;;;;;;;;5115375;27;20046;-73
2023/12/07 12:36:03;;;;;;;7.30;4.25;;;;;;;;;;5112166;28;20043;-72
2023/12/07 12:38:29;;;;;;;7.13;4.03;;;;;;;;;;5114064;27;20047;-72
2023/12/07 12:40:57;;;;;;;7.32;4.50;;;;;;;;;;5114097;27;20047;-73
2023/12/07 12:43:24;;;;;;;8.10;4.30;;;;;;;;;;5115707;27;20043;-73
2023/12/07 12:45:51;;;;;;;10.20;4.97;;;;;;;;;;5119681;27;20039;-72
2023/12/07 12:48:18;;;;;;;6.55;4.60;;;;;;;;;;5115520;27;20138;-73
2023/12/07 12:50:45;;;;;;;6.20;4.53;;;;;;;;;;5110986;28;20458;-72
2023/12/07 12:53:13;;;;;;;7.95;4.43;;;;;;;;;;5111347;28;20051;-72
2023/12/07 12:55:42;;;;;;;6.13;4.53;;;;;;;;;;5111656;28;20659;-73
2023/12/07 12:58:11;;;;;;;7.55;4.85;;;;;;;;;;5115376;28;20044;-72
2023/12/07 13:00:39;;;;;;;6.88;4.45;;;;;;;;;;5112954;28;20519;-72
2023/12/07 13:03:07;;;;;;;7.03;4.38;;;;;;;;;;5114709;27;20044;-72
2023/12/07 13:05:34;;;;;;;6.28;4.20;;;;;;;;;;5121709;27;20074;-72
2023/12/07 13:08:01;;;;;;;19.98;9.35;;;;;;;;;;5111770;28;20044;-72
2023/12/07 13:10:28;;;;;;;15.35;7.20;;;;;;;;;;5111662;28;20047;-72
2023/12/07 13:12:56;;;;;;;11.95;5.47;;;;;;;;;;5111406;28;20097;-72
2023/12/07 13:15:25;;;;;;;7.47;4.63;;;;;;;;;;5111443;28;20480;-72
2023/12/07 13:17:51;;;;;;;13.98;7.90;;;;;;;;;;5116527;27;20089;-72
2023/12/07 13:20:18;;;;;;;8.63;5.82;;;;;;;;;;5118180;27;20039;-72
2023/12/07 13:22:45;;;;;;;8.30;5.57;;;;;;;;;;5120141;27;20050;-72
2023/12/07 13:25:14;;;;;;;8.25;4.50;;;;;;;;;;5115768;27;20044;-72
2023/12/07 13:27:41;;;;;;;7.72;4.50;;;;;;;;;;5115196;28;20040;-71
2023/12/07 13:30:09;;;;;;;6.95;4.45;;;;;;;;;;5119014;27;20052;-71
2023/12/07 13:32:37;;;;;;;7.20;4.45;;;;;;;;;;5119090;27;20098;-72
2023/12/07 13:35:05;;;;;;;9.05;4.40;;;;;;;;;;5115527;28;20069;-72
2023/12/07 13:37:32;;;;;;;6.93;4.10;;;;;;;;;;5115417;28;20043;-72
2023/12/07 13:39:59;;;;;;;8.63;4.50;;;;;;;;;;5119032;27;20412;-72
2023/12/07 13:42:27;;;;;;;7.85;4.45;;;;;;;;;;5115239;28;20048;-72
2023/12/07 13:44:57;;;;;;;6.78;4.72;;;;;;;;;;5124095;27;20052;-72
2023/12/07 13:47:28;;;;;;;6.30;4.28;;;;;;;;;;5115845;27;20103;-73
2023/12/07 13:49:56;;;;;;;7.57;4.53;;;;;;;;;;5115105;27;20097;-72
2023/12/07 13:52:23;;;;;;;8.65;4.68;;;;;;;;;;5118937;27;20089;-72
2023/12/07 13:54:49;;;;;;;8.82;5.05;;;;;;;;;;5111173;28;20048;-72
2023/12/07 13:57:16;;;;;;;7.97;4.88;;;;;;;;;;5117582;27;20054;-72
2023/12/07 13:59:42;;;;;;;6.97;4.80;;;;;;;;;;5114946;27;20487;-72
2023/12/07 14:02:10;;;;;;;10.25;4.55;;;;;;;;;;5114734;28;20130;-73
2023/12/07 14:04:37;;;;;;;7.53;5.22;;;;;;;;;;5120797;27;20043;-72
2023/12/07 14:07:13;;;;;;;8.35;5.00;;;;;;;;;;5120588;27;20534;-72
2023/12/07 14:09:42;;;;;;;9.40;5.38;;;;;;;;;;5118306;27;20113;-72
2023/12/07 14:12:10;;;;;;;11.13;5.28;;;;;;;;;;5122798;27;20043;-72
2023/12/07 14:14:37;;;;;;;10.65;4.65;;;;;;;;;;5114899;27;20054;-72
2023/12/07 14:17:04;;;;;;;12.30;5.40;;;;;;;;;;5114517;27;20051;-72
2023/12/07 14:19:30;;;;;;;10.80;6.00;;;;;;;;;;5114139;28;20073;-72
2023/12/07 14:21:57;;;;;;;8.38;5.63;;;;;;;;;;5118334;27;20044;-72
2023/12/07 14:24:26;;;;;;;11.50;6.07;;;;;;;;;;5118632;27;20050;-73
2023/12/07 14:26:53;;;;;;;13.43;5.60;;;;;;;;;;5113936;28;20048;-72
2023/12/07 14:29:20;;;;;;;8.15;5.53;;;;;;;;;;5113977;27;20513;-73
2023/12/07 14:31:47;;;;;;;11.00;5.75;;;;;;;;;;5113725;28;20126;-72
2023/12/07 14:34:14;;;;;;;9.80;5.72;;;;;;;;;;5118265;27;20047;-72
2023/12/07 14:36:41;;;;;;;12.85;6.72;;;;;;;;;;5122203;27;20051;-72